Peden, North Carolina
Current Conditions -  °F | °C
As of 7:15 AM on Monday 24 Nov 2014 (Local Time) from KGEV Reporting Station
Overcast Overcast  
Wind Chill: 44°   Ceiling: 700
Heat Index: 48°   Visibility: 10mi
Dew Point: 47°   Wind: 7mph
Humidity: 99%   Direction: 160°SSE
Pressure: 29.73"   Gusts: NA
Location:  36.4835°N, 81.3122°W
Report Text: KGEV 241215Z AUTO 16006KT 10SM OVC007 09/09 A2973 RMK AO2 T00870086
Loading
Personal Weather Stations






























Interactive Weather Map New forecast layout! Learn more

10-Day Weather Forecast

Advertisements
Track Severe Weather on mobile